Aviation Digital Data Service (ADDS)

Output produced by METARs form (0058 UTC 22 September 2017)
found at http://www.aviationweather.gov/adds/metars/
 
TJBQ 212352Z 2200/2224 15010G20KT P6SM VCSH SCT020 OVC250 
     FM221200 18012G20KT P6SM VCTS BKN025CB OVC250 AMD NOT SKED
       
TJMZ 212352Z 2200/2224 15010G20KT P6SM VCSH SCT025 BKN050 OVC150 
     FM221200 17010G20KT P6SM VCTS SCT025CB BKN050 OVC150 AMD NOT SKED
       
TJPS 212352Z 2200/2224 16010G20KT 5SM SHRA VCTS SCT015CB BKN025 
     FM220900 16010KT 5SM SHRA VCTS SCT015CB BKN025 AMD NOT SKED
       
TJSJ 212352Z 2200/2224 15010G20KT P6SM VCSH SCT030 BKN060 OVC090 
     FM221200 16010G20KT P6SM VCTS SCT020CB BKN050 AMD NOT SKED